Time;durP1;ratioP1;P1;durP2;ratioP2;P2;SDS_P1;SDS_P2;PMS_P1;PMS_P2;Temp;Humidity;BMP_temperature;BMP_pressure;BME280_temperature;BME280_humidity;BME280_pressure;Samples;Min_cycle;Max_cycle;Signal;HPM_P1;HPM_P2
2022/03/07 00:01:50;;;;;;;40.97;21.02;;;2.30;99.90;;;;;;5040346;28;20049;-77
2022/03/07 00:04:17;;;;;;;40.17;21.13;;;2.20;99.90;;;;;;5041487;28;20398;-76
2022/03/07 00:06:43;;;;;;;39.70;21.80;;;2.20;99.90;;;;;;5024233;28;20041;-77
2022/03/07 00:09:09;;;;;;;40.30;20.25;;;2.20;99.90;;;;;;5043133;28;20026;-76
2022/03/07 00:11:35;;;;;;;43.72;21.15;;;2.20;99.90;;;;;;5040254;28;20024;-76
2022/03/07 00:14:01;;;;;;;37.40;20.65;;;2.20;99.90;;;;;;5039066;28;20021;-77
2022/03/07 00:16:27;;;;;;;51.55;23.48;;;2.20;99.90;;;;;;5038862;28;20101;-77
2022/03/07 00:18:53;;;;;;;41.78;20.98;;;2.20;99.90;;;;;;5036968;28;20099;-77
2022/03/07 00:21:20;;;;;;;42.58;20.92;;;2.10;99.90;;;;;;5037076;28;20419;-77
2022/03/07 00:23:46;;;;;;;45.85;21.30;;;2.10;99.90;;;;;;5036141;28;20490;-77
2022/03/07 00:26:11;;;;;;;39.83;21.00;;;2.20;99.90;;;;;;5036074;28;20030;-76
2022/03/07 00:28:37;;;;;;;44.85;23.10;;;2.20;99.90;;;;;;5018220;28;20071;-77
2022/03/07 00:31:07;;;;;;;49.70;23.48;;;2.20;99.90;;;;;;5035864;28;20083;-78
2022/03/07 00:33:34;;;;;;;51.65;24.60;;;2.10;99.90;;;;;;5035972;28;20056;-77
2022/03/07 00:35:59;;;;;;;44.65;22.52;;;2.10;99.90;;;;;;5035796;28;20025;-77
2022/03/07 00:38:25;;;;;;;40.60;22.42;;;2.10;99.90;;;;;;5036522;28;20017;-77
2022/03/07 00:40:51;;;;;;;41.88;20.98;;;2.10;99.90;;;;;;5035842;28;20120;-77
2022/03/07 00:43:18;;;;;;;40.67;21.10;;;2.10;99.90;;;;;;5035544;28;20060;-76
2022/03/07 00:45:44;;;;;;;41.33;20.55;;;2.10;99.90;;;;;;5017034;28;20483;-76
2022/03/07 00:48:10;;;;;;;46.70;21.33;;;2.10;99.90;;;;;;5017317;28;20143;-78
2022/03/07 00:50:42;;;;;;;44.92;22.33;;;2.00;99.90;;;;;;5036542;28;20039;-76
2022/03/07 00:53:11;;;;;;;44.88;21.30;;;2.00;99.90;;;;;;5035858;28;20018;-75
2022/03/07 00:55:38;;;;;;;40.45;21.65;;;2.00;99.90;;;;;;5019750;28;20022;-75
2022/03/07 00:58:04;;;;;;;38.30;21.88;;;2.00;99.90;;;;;;5040206;28;20029;-76
2022/03/07 01:00:30;;;;;;;38.90;22.17;;;1.90;99.90;;;;;;5028737;28;20092;-76
2022/03/07 01:02:55;;;;;;;45.78;22.05;;;1.90;99.90;;;;;;5041098;28;20029;-76
2022/03/07 01:05:21;;;;;;;44.78;22.13;;;1.90;99.90;;;;;;5042526;28;20037;-75
2022/03/07 01:07:46;;;;;;;43.38;23.17;;;1.90;99.90;;;;;;5046898;28;20036;-76
2022/03/07 01:10:13;;;;;;;45.17;23.35;;;1.80;99.90;;;;;;5041953;28;20033;-76
2022/03/07 01:12:38;;;;;;;44.38;23.00;;;1.80;99.90;;;;;;5037210;28;20045;-76
2022/03/07 01:15:05;;;;;;;36.90;21.80;;;1.70;99.90;;;;;;5038438;28;20025;-76
2022/03/07 01:17:31;;;;;;;46.65;22.23;;;1.70;99.90;;;;;;5037608;28;20048;-76
2022/03/07 01:19:57;;;;;;;45.17;22.23;;;1.70;99.90;;;;;;5036768;28;20059;-76
2022/03/07 01:22:22;;;;;;;42.60;23.48;;;1.70;99.90;;;;;;5039162;28;20482;-76
2022/03/07 01:24:48;;;;;;;49.88;23.67;;;1.70;99.90;;;;;;5041088;28;20184;-75
2022/03/07 01:27:14;;;;;;;44.95;22.48;;;1.70;99.90;;;;;;5038425;28;20021;-76
2022/03/07 01:29:39;;;;;;;49.17;22.95;;;1.70;99.90;;;;;;5040216;28;20482;-76
2022/03/07 01:32:05;;;;;;;53.47;24.13;;;1.60;99.90;;;;;;5019558;28;20025;-76
2022/03/07 01:34:31;;;;;;;64.95;25.90;;;1.60;99.90;;;;;;5034827;28;20079;-76
2022/03/07 01:36:56;;;;;;;51.30;25.23;;;1.60;99.90;;;;;;5035178;28;20026;-75
2022/03/07 01:39:22;;;;;;;59.22;27.48;;;1.60;99.90;;;;;;5021564;28;20479;-76
2022/03/07 01:41:48;;;;;;;67.88;31.13;;;1.60;99.90;;;;;;5018388;28;20482;-76
2022/03/07 01:44:18;;;;;;;86.90;36.47;;;1.60;99.90;;;;;;5017128;28;20033;-76
2022/03/07 01:46:44;;;;;;;88.18;34.90;;;1.60;99.90;;;;;;5045110;28;20017;-74
2022/03/07 01:49:10;;;;;;;99.45;37.83;;;1.50;99.90;;;;;;5040508;28;20022;-74
2022/03/07 01:51:35;;;;;;;94.45;34.38;;;1.50;99.90;;;;;;5057820;28;20024;-75
2022/03/07 01:54:01;;;;;;;62.05;28.50;;;1.50;99.90;;;;;;5058381;28;20024;-75
2022/03/07 01:56:27;;;;;;;54.47;25.27;;;1.50;99.90;;;;;;5057548;28;20014;-74
2022/03/07 01:58:52;;;;;;;48.53;24.27;;;1.40;99.90;;;;;;5040539;28;20143;-76
2022/03/07 02:01:18;;;;;;;49.70;25.77;;;1.40;99.90;;;;;;5037999;28;20021;-76
2022/03/07 02:03:43;;;;;;;51.97;26.13;;;1.30;99.90;;;;;;5026470;28;20009;-75
2022/03/07 02:06:10;;;;;;;46.83;25.73;;;1.30;99.90;;;;;;5057188;28;20033;-75
2022/03/07 02:08:35;;;;;;;47.03;27.02;;;1.30;99.90;;;;;;5041057;28;20039;-75
2022/03/07 02:11:01;;;;;;;43.97;24.88;;;1.30;99.90;;;;;;5040859;28;20045;-76
2022/03/07 02:13:29;;;;;;;47.00;24.50;;;1.30;99.90;;;;;;5058327;28;20089;-75
2022/03/07 02:15:56;;;;;;;49.22;26.33;;;1.30;99.90;;;;;;5040850;28;20016;-74
2022/03/07 02:18:24;;;;;;;57.90;24.58;;;1.30;99.90;;;;;;5039876;28;20017;-74
2022/03/07 02:20:58;;;;;;;42.65;23.15;;;1.20;99.90;;;;;;5058199;28;20025;-75
2022/03/07 02:23:24;;;;;;;42.17;23.95;;;1.20;99.90;;;;;;5041212;28;20021;-75
2022/03/07 02:25:49;;;;;;;45.13;23.83;;;1.10;99.90;;;;;;5051791;28;20292;-78
2022/03/07 02:28:15;;;;;;;38.50;23.10;;;1.10;99.90;;;;;;5036148;28;20056;-76
2022/03/07 02:30:41;;;;;;;40.08;21.95;;;1.10;99.90;;;;;;5034730;28;20033;-75
2022/03/07 02:33:11;;;;;;;36.28;21.67;;;1.10;99.90;;;;;;5035031;28;20022;-79
2022/03/07 02:35:36;;;;;;;35.22;21.27;;;1.10;99.90;;;;;;5033038;28;20057;-75
2022/03/07 02:38:02;;;;;;;31.92;20.55;;;1.00;99.90;;;;;;5050661;28;20021;-73
2022/03/07 02:40:28;;;;;;;39.35;22.83;;;1.00;99.90;;;;;;5040173;28;20041;-74
2022/03/07 02:42:53;;;;;;;49.92;20.88;;;1.00;99.90;;;;;;5034562;28;20490;-75
2022/03/07 02:45:19;;;;;;;43.35;21.05;;;0.90;99.90;;;;;;5033815;28;20072;-75
2022/03/07 02:47:44;;;;;;;49.67;21.15;;;0.80;99.90;;;;;;5033758;28;20021;-75
2022/03/07 02:50:10;;;;;;;44.03;21.73;;;0.80;99.90;;;;;;5033624;28;20047;-76
2022/03/07 02:52:35;;;;;;;39.00;22.77;;;0.70;99.90;;;;;;5034375;28;20033;-76
2022/03/07 02:55:01;;;;;;;33.30;21.88;;;0.70;99.90;;;;;;5035844;28;20036;-76
2022/03/07 02:57:26;;;;;;;34.35;21.13;;;0.70;99.90;;;;;;5033847;28;20021;-75
2022/03/07 02:59:52;;;;;;;31.77;20.17;;;0.70;99.90;;;;;;5033607;28;20513;-76
2022/03/07 03:02:18;;;;;;;38.10;20.88;;;0.70;99.90;;;;;;5034400;28;20030;-76
2022/03/07 03:04:44;;;;;;;34.40;20.05;;;0.70;99.90;;;;;;5034742;28;20025;-77
2022/03/07 03:07:10;;;;;;;33.78;19.73;;;0.70;99.90;;;;;;5018967;28;20445;-77
2022/03/07 03:09:35;;;;;;;34.60;21.45;;;0.70;99.90;;;;;;5034531;28;20441;-76
2022/03/07 03:12:01;;;;;;;30.80;19.95;;;0.70;99.90;;;;;;5034886;28;20486;-75
2022/03/07 03:14:26;;;;;;;33.97;20.08;;;0.60;99.90;;;;;;5038087;28;20511;-76
2022/03/07 03:16:52;;;;;;;32.03;20.17;;;0.60;99.90;;;;;;5036340;28;20025;-76
2022/03/07 03:19:17;;;;;;;31.77;18.80;;;0.60;99.90;;;;;;5019555;28;20025;-76
2022/03/07 03:21:43;;;;;;;27.67;17.83;;;0.70;99.90;;;;;;5035536;28;20033;-77
2022/03/07 03:24:09;;;;;;;30.80;18.70;;;0.60;99.90;;;;;;5034310;28;20040;-76
2022/03/07 03:26:35;;;;;;;27.40;17.45;;;0.50;99.90;;;;;;5015792;28;20033;-76
2022/03/07 03:29:00;;;;;;;26.20;17.60;;;0.50;99.90;;;;;;5034483;28;20037;-76
2022/03/07 03:31:26;;;;;;;27.80;18.48;;;0.50;99.90;;;;;;5033574;28;20079;-75
2022/03/07 03:33:53;;;;;;;33.50;19.92;;;0.50;99.90;;;;;;5037787;28;20086;-76
2022/03/07 03:36:18;;;;;;;34.20;20.92;;;0.50;99.90;;;;;;5039971;28;20081;-76
2022/03/07 03:38:44;;;;;;;35.45;21.92;;;0.40;99.90;;;;;;5041482;28;20056;-76
2022/03/07 03:41:09;;;;;;;32.95;21.15;;;0.40;99.90;;;;;;5024051;28;20113;-77
2022/03/07 03:43:35;;;;;;;37.20;22.80;;;0.40;99.90;;;;;;5037979;28;20013;-76
2022/03/07 03:46:00;;;;;;;39.60;23.27;;;0.40;99.90;;;;;;5044331;28;20055;-76
2022/03/07 03:48:26;;;;;;;37.50;22.88;;;0.30;99.90;;;;;;5046881;28;20110;-76
2022/03/07 03:50:51;;;;;;;35.83;21.02;;;0.30;99.90;;;;;;5041979;28;20041;-76
2022/03/07 03:53:17;;;;;;;32.03;20.45;;;0.30;99.90;;;;;;5025381;28;20497;-77
2022/03/07 03:55:42;;;;;;;27.58;18.05;;;0.30;99.90;;;;;;5027332;28;20017;-78
2022/03/07 03:58:08;;;;;;;36.50;21.13;;;0.30;99.90;;;;;;5025852;28;20390;-75
2022/03/07 04:00:33;;;;;;;30.20;19.27;;;0.30;99.90;;;;;;5057651;28;20045;-73
2022/03/07 04:02:59;;;;;;;27.40;18.67;;;0.20;99.90;;;;;;5042862;28;20021;-74
2022/03/07 04:05:25;;;;;;;26.08;17.73;;;0.20;99.90;;;;;;5059961;28;20025;-73
2022/03/07 04:07:50;;;;;;;31.48;19.98;;;0.20;99.90;;;;;;5043325;28;20064;-75
2022/03/07 04:10:16;;;;;;;30.33;19.58;;;0.20;99.90;;;;;;5043050;28;20021;-73
2022/03/07 04:12:42;;;;;;;30.55;18.83;;;0.10;99.90;;;;;;5043263;28;20060;-73
2022/03/07 04:15:09;;;;;;;32.10;21.00;;;0.20;99.90;;;;;;5060105;28;20041;-75
2022/03/07 04:17:39;;;;;;;31.63;19.75;;;0.20;99.90;;;;;;5059969;28;20093;-74
2022/03/07 04:20:06;;;;;;;32.00;20.38;;;0.20;99.90;;;;;;5057729;28;20060;-76
2022/03/07 04:22:32;;;;;;;31.25;20.20;;;0.10;99.90;;;;;;5049701;28;20029;-76
2022/03/07 04:24:58;;;;;;;33.25;20.70;;;0.10;99.90;;;;;;5049346;28;20033;-76
2022/03/07 04:27:24;;;;;;;34.55;21.52;;;0.10;99.90;;;;;;5048024;28;20083;-76
2022/03/07 04:29:50;;;;;;;36.92;22.70;;;0.00;99.90;;;;;;5031024;28;20108;-76
2022/03/07 04:32:17;;;;;;;33.47;20.15;;;0.10;99.90;;;;;;5046716;28;20052;-76
2022/03/07 04:34:42;;;;;;;31.02;20.25;;;0.10;99.90;;;;;;5045104;28;20021;-76
2022/03/07 04:37:08;;;;;;;31.40;19.90;;;0.00;99.90;;;;;;5043222;28;20036;-75
2022/03/07 04:39:33;;;;;;;31.60;20.38;;;0.10;99.90;;;;;;5042620;28;20048;-76
2022/03/07 04:41:59;;;;;;;34.70;20.38;;;0.10;99.90;;;;;;5040205;28;20161;-76
2022/03/07 04:44:25;;;;;;;31.35;20.08;;;0.00;99.90;;;;;;5022443;28;20032;-76
2022/03/07 04:46:50;;;;;;;31.67;20.58;;;0.10;99.90;;;;;;5043083;28;20039;-76
2022/03/07 04:49:16;;;;;;;37.05;22.08;;;0.10;99.90;;;;;;5045088;28;20021;-76
2022/03/07 04:51:45;;;;;;;33.60;21.35;;;0.10;99.90;;;;;;5033803;28;20481;-75
2022/03/07 04:54:11;;;;;;;37.63;22.20;;;0.10;99.90;;;;;;5039814;28;20022;-76
2022/03/07 04:56:37;;;;;;;47.33;27.65;;;0.10;99.90;;;;;;5040335;28;20067;-77
2022/03/07 04:59:03;;;;;;;38.75;23.92;;;0.10;99.90;;;;;;5038284;28;20057;-75
2022/03/07 05:01:28;;;;;;;40.60;23.40;;;0.10;99.90;;;;;;5038101;28;20375;-76
2022/03/07 05:03:54;;;;;;;38.83;22.13;;;0.20;99.90;;;;;;5020919;28;20021;-75
2022/03/07 05:06:19;;;;;;;40.78;23.95;;;0.20;99.90;;;;;;5019492;28;20033;-76
2022/03/07 05:08:45;;;;;;;34.63;21.40;;;0.10;99.90;;;;;;5037287;28;20039;-75
2022/03/07 05:11:10;;;;;;;36.17;21.48;;;0.20;99.90;;;;;;5039755;28;20029;-76
2022/03/07 05:13:36;;;;;;;41.00;23.80;;;0.10;99.90;;;;;;5020057;28;20097;-77
2022/03/07 05:16:03;;;;;;;43.88;24.40;;;0.10;99.90;;;;;;5037135;28;20033;-76
2022/03/07 05:18:28;;;;;;;38.97;23.13;;;0.10;99.90;;;;;;5022569;28;20036;-76
2022/03/07 05:20:54;;;;;;;38.58;21.80;;;0.10;99.90;;;;;;5038527;28;20034;-76
2022/03/07 05:23:19;;;;;;;36.45;22.58;;;0.10;99.90;;;;;;5038519;28;20415;-76
2022/03/07 05:25:45;;;;;;;37.03;21.42;;;0.10;99.90;;;;;;5021694;28;20029;-76
2022/03/07 05:28:10;;;;;;;34.80;20.80;;;0.10;99.90;;;;;;5020638;28;20017;-75
2022/03/07 05:30:36;;;;;;;33.60;22.02;;;0.10;99.90;;;;;;5037922;28;20029;-79
2022/03/07 05:33:01;;;;;;;35.97;23.40;;;0.10;99.90;;;;;;5003675;28;20021;-76
2022/03/07 05:35:29;;;;;;;49.28;25.75;;;0.10;99.90;;;;;;5039926;28;20479;-74
2022/03/07 05:37:55;;;;;;;38.63;24.00;;;0.10;99.90;;;;;;5058522;28;20029;-75
2022/03/07 05:40:20;;;;;;;42.05;24.20;;;0.00;99.90;;;;;;5056477;28;20028;-74
2022/03/07 05:42:46;;;;;;;41.88;23.60;;;0.00;99.90;;;;;;5058003;28;20032;-76
2022/03/07 05:45:13;;;;;;;39.55;23.70;;;0.00;99.90;;;;;;5056835;28;20037;-72
2022/03/07 05:47:39;;;;;;;35.28;22.90;;;0.00;99.90;;;;;;5058345;28;20013;-73
2022/03/07 05:50:05;;;;;;;37.72;23.33;;;0.00;99.90;;;;;;5058236;28;20074;-74
2022/03/07 05:52:30;;;;;;;35.88;22.70;;;0.00;99.90;;;;;;5052287;28;20022;-76
2022/03/07 05:54:56;;;;;;;37.45;23.17;;;0.00;99.90;;;;;;5018856;28;20572;-77
2022/03/07 05:57:22;;;;;;;33.67;22.63;;;0.00;99.90;;;;;;5019047;28;20041;-76
2022/03/07 05:59:47;;;;;;;33.78;21.92;;;0.00;99.90;;;;;;5037632;28;20044;-77
2022/03/07 06:02:13;;;;;;;50.55;29.05;;;0.00;99.90;;;;;;5021448;28;20112;-77
2022/03/07 06:04:39;;;;;;;41.33;24.00;;;0.00;99.90;;;;;;5020848;28;20390;-77
2022/03/07 06:07:04;;;;;;;35.03;21.75;;;0.10;99.90;;;;;;5036618;28;20037;-76
2022/03/07 06:09:30;;;;;;;38.38;23.17;;;0.00;99.90;;;;;;5037381;28;20127;-75
2022/03/07 06:11:55;;;;;;;37.05;23.15;;;0.00;99.90;;;;;;5019465;28;20026;-75
2022/03/07 06:14:21;;;;;;;34.95;22.15;;;0.00;99.90;;;;;;5025269;28;20022;-79
2022/03/07 06:16:47;;;;;;;36.45;22.75;;;0.10;99.90;;;;;;5036294;28;20488;-76
2022/03/07 06:19:12;;;;;;;40.97;22.58;;;0.10;99.90;;;;;;5034872;28;20037;-76
2022/03/07 06:21:38;;;;;;;37.95;23.13;;;0.10;99.90;;;;;;5034943;28;20029;-77
2022/03/07 06:24:04;;;;;;;39.80;24.00;;;0.10;99.90;;;;;;5037702;28;20045;-76
2022/03/07 06:26:29;;;;;;;46.53;25.42;;;0.10;99.90;;;;;;5038749;28;20037;-76
2022/03/07 06:28:55;;;;;;;43.92;23.88;;;0.10;99.90;;;;;;5037152;28;20104;-75
2022/03/07 06:31:20;;;;;;;40.80;24.08;;;0.20;99.90;;;;;;5036384;28;20093;-75
2022/03/07 06:33:46;;;;;;;42.80;23.52;;;0.20;99.90;;;;;;5038530;28;20540;-75
2022/03/07 06:36:12;;;;;;;41.85;23.95;;;0.20;99.90;;;;;;5037619;28;20053;-76
2022/03/07 06:38:39;;;;;;;38.58;22.98;;;0.30;99.90;;;;;;5025327;28;20076;-76
2022/03/07 06:41:06;;;;;;;42.60;23.50;;;0.30;99.90;;;;;;5024766;28;20030;-79
2022/03/07 06:43:32;;;;;;;39.17;23.95;;;0.40;99.90;;;;;;5019333;28;20120;-76
2022/03/07 06:45:57;;;;;;;39.35;24.83;;;0.40;99.90;;;;;;5040744;28;20041;-77
2022/03/07 06:48:23;;;;;;;41.10;25.10;;;0.50;99.90;;;;;;5023938;28;20022;-78
2022/03/07 06:50:48;;;;;;;44.28;25.48;;;0.50;99.90;;;;;;5035546;28;20080;-75
2022/03/07 06:53:14;;;;;;;58.00;29.85;;;0.50;99.90;;;;;;5049238;28;20041;-76
2022/03/07 06:55:40;;;;;;;48.10;27.05;;;0.60;99.90;;;;;;5038525;28;20029;-75
2022/03/07 06:58:06;;;;;;;49.08;25.92;;;0.60;99.90;;;;;;5038685;28;20013;-77
2022/03/07 07:00:32;;;;;;;47.65;27.25;;;0.70;99.90;;;;;;5038447;28;20025;-76
2022/03/07 07:02:58;;;;;;;47.50;26.27;;;0.70;99.90;;;;;;5021546;28;20026;-76
2022/03/07 07:05:24;;;;;;;43.53;25.08;;;0.90;99.90;;;;;;5038366;28;20502;-76
2022/03/07 07:07:50;;;;;;;49.80;26.70;;;0.90;99.90;;;;;;5017694;28;20030;-77
2022/03/07 07:10:19;;;;;;;44.53;25.50;;;0.90;99.90;;;;;;5036995;28;20053;-76
2022/03/07 07:12:47;;;;;;;46.92;25.27;;;1.00;99.90;;;;;;5038960;28;20050;-78
2022/03/07 07:15:13;;;;;;;45.83;24.85;;;1.10;99.90;;;;;;5039564;28;20025;-78
2022/03/07 07:17:39;;;;;;;45.42;25.13;;;1.10;99.90;;;;;;5020556;28;20045;-78
2022/03/07 07:20:08;;;;;;;46.03;24.90;;;1.30;99.90;;;;;;5040885;28;20057;-78
2022/03/07 07:22:34;;;;;;;40.78;23.35;;;1.30;99.90;;;;;;5026294;28;20074;-77
2022/03/07 07:25:00;;;;;;;43.72;24.17;;;1.40;99.90;;;;;;5042287;28;20026;-76
2022/03/07 07:27:26;;;;;;;42.25;23.77;;;1.50;99.90;;;;;;5039744;28;20029;-77
2022/03/07 07:29:52;;;;;;;36.55;22.33;;;1.50;99.90;;;;;;5040261;28;20494;-77
2022/03/07 07:32:18;;;;;;;59.50;22.65;;;1.60;99.90;;;;;;5042205;28;20495;-77
2022/03/07 07:34:43;;;;;;;38.25;21.63;;;1.70;99.90;;;;;;5047289;28;20052;-79
2022/03/07 07:37:09;;;;;;;38.42;23.10;;;1.80;99.90;;;;;;5040349;28;20017;-78
2022/03/07 07:39:35;;;;;;;41.35;24.05;;;1.90;99.90;;;;;;5040893;28;20025;-75
2022/03/07 07:42:00;;;;;;;38.63;22.92;;;2.00;99.90;;;;;;5040808;28;20065;-78
2022/03/07 07:44:26;;;;;;;36.97;21.58;;;2.10;99.90;;;;;;5039459;28;20033;-79
2022/03/07 07:46:52;;;;;;;36.25;21.08;;;2.20;99.90;;;;;;5039562;28;20089;-78
2022/03/07 07:49:18;;;;;;;39.90;21.73;;;2.30;99.90;;;;;;5041861;28;20061;-76
2022/03/07 07:51:44;;;;;;;38.47;22.50;;;2.40;99.90;;;;;;5026387;28;20126;-78
2022/03/07 07:54:09;;;;;;;35.35;19.90;;;2.50;99.90;;;;;;5044917;28;20032;-77
2022/03/07 07:56:35;;;;;;;34.17;18.98;;;2.60;99.90;;;;;;5041310;28;20101;-77
2022/03/07 07:59:00;;;;;;;34.03;19.10;;;2.70;99.90;;;;;;5023898;28;20048;-77
2022/03/07 08:01:26;;;;;;;28.63;17.38;;;2.80;99.90;;;;;;5039554;28;20025;-76
2022/03/07 08:03:51;;;;;;;33.70;17.63;;;2.90;99.90;;;;;;5039359;28;20064;-78
2022/03/07 08:06:17;;;;;;;29.58;17.27;;;3.00;99.90;;;;;;5038825;28;20043;-78
2022/03/07 08:08:43;;;;;;;28.92;16.73;;;3.10;99.90;;;;;;5039342;28;20104;-78
2022/03/07 08:11:08;;;;;;;30.83;16.25;;;3.30;99.90;;;;;;5024365;28;20029;-78
2022/03/07 08:13:34;;;;;;;28.20;16.77;;;3.40;99.90;;;;;;5043627;28;20502;-78
2022/03/07 08:15:59;;;;;;;33.45;16.65;;;3.50;99.90;;;;;;5040162;28;20032;-79
2022/03/07 08:18:25;;;;;;;25.25;15.55;;;3.60;99.90;;;;;;5039132;28;20053;-78
2022/03/07 08:20:51;;;;;;;27.13;15.57;;;3.80;99.90;;;;;;5039211;28;20045;-77
2022/03/07 08:23:17;;;;;;;26.80;15.50;;;3.90;99.90;;;;;;5021952;28;20053;-78
2022/03/07 08:25:42;;;;;;;25.23;14.93;;;4.00;99.90;;;;;;5039228;28;20044;-78
2022/03/07 08:28:08;;;;;;;30.83;16.33;;;4.20;99.90;;;;;;5044130;28;20033;-76
2022/03/07 08:30:34;;;;;;;30.48;17.10;;;4.30;99.90;;;;;;5043615;28;20018;-77
2022/03/07 08:33:00;;;;;;;25.35;15.45;;;4.50;99.90;;;;;;5042765;28;20022;-77
2022/03/07 08:35:26;;;;;;;20.60;13.60;;;4.80;99.90;;;;;;5027573;28;20031;-77
2022/03/07 08:37:53;;;;;;;21.92;12.38;;;5.50;99.90;;;;;;5025062;28;20021;-79
2022/03/07 08:40:20;;;;;;;19.38;12.23;;;6.50;99.90;;;;;;5024095;28;20032;-77
2022/03/07 08:42:46;;;;;;;18.48;11.90;;;7.60;99.90;;;;;;5042164;28;20064;-78
2022/03/07 08:45:12;;;;;;;17.95;11.10;;;8.70;99.90;;;;;;5029538;28;20418;-78
2022/03/07 08:47:39;;;;;;;20.00;12.40;;;9.70;99.90;;;;;;5048297;28;20131;-74
2022/03/07 08:50:08;;;;;;;17.33;9.60;;;10.70;99.90;;;;;;5028967;28;20025;-76
2022/03/07 08:52:34;;;;;;;14.07;9.52;;;11.60;99.90;;;;;;5019780;28;20047;-77
2022/03/07 08:55:01;;;;;;;15.50;8.93;;;12.20;99.90;;;;;;5036687;28;20034;-77
2022/03/07 08:57:27;;;;;;;16.25;8.73;;;13.10;99.90;;;;;;5037078;28;20025;-77
2022/03/07 08:59:53;;;;;;;18.92;9.35;;;;;;;;;;5036144;28;20030;-78
2022/03/07 09:02:18;;;;;;;11.50;7.72;;;13.80;99.90;;;;;;5037018;28;20033;-78
2022/03/07 09:04:44;;;;;;;19.13;8.25;;;14.50;99.90;;;;;;5018301;28;20026;-77
2022/03/07 09:07:09;;;;;;;14.55;9.60;;;15.40;99.90;;;;;;5020036;28;20028;-77
2022/03/07 09:09:35;;;;;;;16.00;8.35;;;15.90;97.30;;;;;;5038294;28;20382;-76
2022/03/07 09:12:02;;;;;;;22.30;12.00;;;;;;;;;;5023570;28;20040;-78
2022/03/07 09:14:28;;;;;;;12.63;8.30;;;16.40;95.10;;;;;;5040483;28;20025;-78
2022/03/07 09:16:53;;;;;;;14.13;8.45;;;17.70;89.90;;;;;;5041086;28;20566;-78
2022/03/07 09:19:19;;;;;;;13.00;8.18;;;18.20;86.30;;;;;;5021672;28;20029;-77
2022/03/07 09:21:45;;;;;;;13.75;7.85;;;17.90;83.40;;;;;;5038513;28;20030;-78
2022/03/07 09:24:10;;;;;;;16.65;8.90;;;18.60;81.00;;;;;;5036751;28;20077;-78
2022/03/07 09:26:36;;;;;;;13.32;7.45;;;19.00;78.20;;;;;;5036932;28;20037;-76
2022/03/07 09:29:01;;;;;;;15.32;9.40;;;19.10;74.90;;;;;;5043191;28;20041;-76
2022/03/07 09:31:28;;;;;;;11.35;6.95;;;;;;;;;;5048123;28;20026;-78
2022/03/07 09:33:53;;;;;;;11.52;6.40;;;19.80;69.70;;;;;;5046709;28;20036;-78
2022/03/07 09:36:19;;;;;;;14.43;5.68;;;19.90;68.80;;;;;;5040530;28;20018;-77
2022/03/07 09:38:45;;;;;;;10.50;5.50;;;;;;;;;;5037226;28;20064;-77
2022/03/07 09:41:11;;;;;;;9.50;6.00;;;20.30;66.10;;;;;;5019380;28;20040;-77
2022/03/07 09:43:37;;;;;;;15.25;5.57;;;20.90;61.70;;;;;;5037326;28;20026;-78
2022/03/07 09:46:03;;;;;;;8.30;5.40;;;20.20;60.30;;;;;;5035532;28;20033;-78
2022/03/07 09:48:30;;;;;;;10.93;5.32;;;20.30;60.60;;;;;;5036577;28;20108;-78
2022/03/07 09:50:56;;;;;;;12.15;6.13;;;20.70;60.20;;;;;;5038519;28;20099;-76
2022/03/07 09:53:21;;;;;;;11.77;5.47;;;20.80;58.80;;;;;;5038803;28;20459;-77
2022/03/07 09:55:48;;;;;;;9.15;5.20;;;20.90;58.10;;;;;;5050338;28;20015;-79
2022/03/07 09:58:14;;;;;;;14.00;3.90;;;21.10;57.10;;;;;;5051890;28;20416;-77
2022/03/07 10:00:42;;;;;;;10.65;3.95;;;21.80;55.20;;;;;;5050905;28;20030;-76
2022/03/07 10:03:09;;;;;;;8.02;2.63;;;21.80;53.80;;;;;;5039553;28;20024;-75
2022/03/07 10:05:37;;;;;;;6.22;2.38;;;22.20;50.40;;;;;;5056597;28;20116;-78
2022/03/07 10:08:05;;;;;;;6.05;2.72;;;22.30;48.30;;;;;;5056637;28;20022;-78
2022/03/07 10:10:34;;;;;;;10.32;4.53;;;22.40;46.50;;;;;;5056914;28;20028;-79
2022/03/07 10:13:06;;;;;;;8.02;2.50;;;22.90;46.30;;;;;;5056819;28;20026;-79
2022/03/07 10:15:33;;;;;;;11.35;4.80;;;22.80;44.60;;;;;;5036319;28;20033;-77
2022/03/07 10:17:58;;;;;;;11.90;2.80;;;23.00;44.80;;;;;;5017715;28;20032;-77
2022/03/07 10:20:26;;;;;;;4.60;2.08;;;22.80;43.40;;;;;;5038513;28;20554;-79
2022/03/07 10:22:54;;;;;;;9.50;3.05;;;23.00;42.40;;;;;;5038169;28;20475;-78
2022/03/07 10:25:26;;;;;;;4.75;2.20;;;23.60;42.70;;;;;;5038844;28;20035;-77
2022/03/07 10:27:52;;;;;;;9.65;2.28;;;24.00;39.60;;;;;;5035777;28;20029;-80
2022/03/07 10:30:20;;;;;;;4.28;1.98;;;23.70;39.00;;;;;;5018391;28;20026;-78
2022/03/07 10:33:05;;;;;;;8.88;2.35;;;23.40;39.70;;;;;;5035838;28;20017;-78
2022/03/07 10:35:37;;;;;;;3.97;2.00;;;23.30;40.10;;;;;;5036757;28;20024;-78
2022/03/07 10:38:12;;;;;;;4.40;2.03;;;23.40;39.50;;;;;;5036393;28;20458;-79
2022/03/07 10:40:39;;;;;;;;;;;23.30;38.40;;;;;;5038167;28;20051;-78
2022/03/07 10:43:06;;;;;;;7.35;2.45;;;23.20;38.70;;;;;;5041051;28;19905;-78
2022/03/07 10:45:45;;;;;;;7.68;2.60;;;23.30;38.10;;;;;;5036621;28;20033;-77
2022/03/07 10:48:10;;;;;;;5.15;2.28;;;23.10;38.60;;;;;;5040717;28;20021;-77
2022/03/07 10:50:36;;;;;;;8.25;3.72;;;23.40;38.60;;;;;;5019004;28;20028;-78
2022/03/07 10:53:07;;;;;;;8.05;2.65;;;23.90;37.90;;;;;;5037922;28;20029;-78
2022/03/07 10:55:34;;;;;;;4.53;2.33;;;24.10;37.80;;;;;;5034595;28;20096;-78
2022/03/07 10:58:09;;;;;;;4.47;2.00;;;24.10;37.00;;;;;;5035604;28;20022;-77
2022/03/07 11:00:53;;;;;;;5.10;2.45;;;24.70;36.80;;;;;;5034759;28;20068;-76
2022/03/07 11:03:24;;;;;;;5.20;2.10;;;25.00;34.90;;;;;;5035458;28;20490;-77
2022/03/07 11:05:50;;;;;;;3.45;1.80;;;25.50;33.20;;;;;;5033564;28;20418;-77
2022/03/07 11:08:17;;;;;;;3.47;1.60;;;25.90;33.00;;;;;;5033538;28;20117;-77
2022/03/07 11:10:45;;;;;;;5.20;2.17;;;25.70;31.70;;;;;;5034974;28;20505;-77
2022/03/07 11:13:15;;;;;;;3.38;1.67;;;25.10;33.00;;;;;;5033708;28;20029;-77
2022/03/07 11:15:44;;;;;;;3.15;1.55;;;24.60;32.20;;;;;;5034497;28;20444;-77
2022/03/07 11:18:14;;;;;;;7.43;1.55;;;24.30;33.00;;;;;;5044444;28;20033;-79
2022/03/07 11:20:45;;;;;;;4.90;2.63;;;24.30;32.80;;;;;;5055646;28;20038;-77
2022/03/07 11:23:11;;;;;;;3.85;2.13;;;24.30;34.10;;;;;;5046214;28;20072;-77
2022/03/07 11:25:41;;;;;;;4.15;2.03;;;24.20;34.40;;;;;;5016495;28;20093;-78
2022/03/07 11:28:07;;;;;;;4.88;1.85;;;24.20;34.20;;;;;;5035851;28;20116;-77
2022/03/07 11:30:44;;;;;;;3.53;1.67;;;24.30;33.50;;;;;;5035985;28;20450;-78
2022/03/07 11:33:15;;;;;;;3.85;1.88;;;24.70;33.70;;;;;;5035308;28;20124;-80
2022/03/07 11:35:45;;;;;;;6.03;3.10;;;24.70;32.80;;;;;;5036398;28;20025;-77
2022/03/07 11:38:15;;;;;;;5.43;2.10;;;25.00;33.30;;;;;;5035574;28;20068;-77
2022/03/07 11:41:00;;;;;;;4.82;2.22;;;24.90;33.40;;;;;;5033868;28;20085;-78
2022/03/07 11:43:27;;;;;;;5.55;2.60;;;25.60;32.50;;;;;;5018563;28;20100;-77
2022/03/07 11:45:54;;;;;;;4.38;2.25;;;25.90;32.40;;;;;;5033478;28;20056;-76
2022/03/07 11:48:20;;;;;;;3.47;2.00;;;25.80;32.30;;;;;;5035111;28;20036;-78
2022/03/07 11:50:45;;;;;;;2.92;1.42;;;26.10;31.80;;;;;;5037742;28;20489;-78
2022/03/07 11:53:14;;;;;;;2.78;1.50;;;25.70;30.70;;;;;;5019246;28;20030;-79
2022/03/07 11:55:48;;;;;;;3.70;1.75;;;25.30;30.60;;;;;;5035019;28;20474;-78
2022/03/07 11:58:24;;;;;;;2.40;1.35;;;25.30;30.90;;;;;;5034689;28;20037;-76
2022/03/07 12:01:00;;;;;;;2.90;1.50;;;24.80;31.30;;;;;;5034582;28;20104;-78
2022/03/07 12:03:32;;;;;;;3.65;1.73;;;24.90;31.40;;;;;;5032724;28;20029;-78
2022/03/07 12:06:13;;;;;;;2.70;1.80;;;24.90;32.00;;;;;;5034692;28;20117;-79
2022/03/07 12:08:48;;;;;;;3.83;1.58;;;25.20;32.10;;;;;;5040307;28;20064;-78
2022/03/07 12:11:30;;;;;;;6.43;1.70;;;25.10;31.20;;;;;;5046064;28;20048;-79
2022/03/07 12:14:02;;;;;;;2.88;1.90;;;25.30;30.50;;;;;;5039974;28;20029;-78
2022/03/07 12:16:39;;;;;;;3.05;1.60;;;25.40;30.50;;;;;;5037302;28;20025;-78
2022/03/07 12:19:12;;;;;;;5.43;1.70;;;25.10;30.10;;;;;;5039398;28;20490;-77
2022/03/07 12:21:44;;;;;;;3.40;1.63;;;25.00;30.90;;;;;;5038269;28;20033;-77
2022/03/07 12:24:13;;;;;;;5.28;1.70;;;25.20;31.00;;;;;;5038501;28;20056;-78
2022/03/07 12:26:48;;;;;;;4.18;2.15;;;25.60;29.70;;;;;;5038082;28;20109;-77
2022/03/07 12:29:15;;;;;;;3.50;1.60;;;26.20;29.50;;;;;;5038935;28;20025;-77
2022/03/07 12:31:55;;;;;;;4.57;1.73;;;26.40;29.20;;;;;;5043943;28;20018;-78
2022/03/07 12:34:32;;;;;;;3.33;1.20;;;26.70;29.10;;;;;;5051657;28;20034;-76
2022/03/07 12:37:08;;;;;;;2.40;1.38;;;26.90;28.70;;;;;;5052106;28;20593;-77
2022/03/07 12:39:54;;;;;;;5.15;1.52;;;27.50;29.00;;;;;;5038575;28;20024;-77